sensor_id;sensor_type;location;lat;lon;timestamp;pressure;altitude;pressure_sealevel;temperature;humidity
10167;BME280;62970;53.130;8.244;2023-04-27T00:00:22;102046.25;;;2.32;56.88
10167;BME280;62970;53.130;8.244;2023-04-27T00:02:52;102045.28;;;2.29;56.85
10167;BME280;62970;53.130;8.244;2023-04-27T00:05:21;102042.56;;;2.24;56.92
10167;BME280;62970;53.130;8.244;2023-04-27T00:07:51;102045.88;;;2.20;57.38
10167;BME280;62970;53.130;8.244;2023-04-27T00:10:20;102049.19;;;2.17;57.43
10167;BME280;62970;53.130;8.244;2023-04-27T00:15:32;102048.91;;;2.08;57.41
10167;BME280;62970;53.130;8.244;2023-04-27T00:18:02;102049.69;;;2.06;57.56
10167;BME280;62970;53.130;8.244;2023-04-27T00:20:31;102050.53;;;2.05;57.16
10167;BME280;62970;53.130;8.244;2023-04-27T00:25:30;102049.53;;;2.01;57.81
10167;BME280;62970;53.130;8.244;2023-04-27T00:27:59;102053.81;;;2.01;57.75
10167;BME280;62970;53.130;8.244;2023-04-27T00:30:28;102052.03;;;1.98;57.52
10167;BME280;62970;53.130;8.244;2023-04-27T00:33:00;102052.84;;;1.97;57.79
10167;BME280;62970;53.130;8.244;2023-04-27T00:35:31;102057.94;;;1.96;57.51
10167;BME280;62970;53.130;8.244;2023-04-27T00:38:00;102057.91;;;1.94;58.01
10167;BME280;62970;53.130;8.244;2023-04-27T00:40:29;102063.88;;;1.93;57.96
10167;BME280;62970;53.130;8.244;2023-04-27T00:42:58;102069.84;;;1.92;57.57
10167;BME280;62970;53.130;8.244;2023-04-27T00:45:27;102070.66;;;1.91;57.63
10167;BME280;62970;53.130;8.244;2023-04-27T00:48:00;102067.16;;;1.89;58.06
10167;BME280;62970;53.130;8.244;2023-04-27T00:50:29;102067.16;;;1.89;58.00
10167;BME280;62970;53.130;8.244;2023-04-27T00:53:00;102068.81;;;1.87;57.76
10167;BME280;62970;53.130;8.244;2023-04-27T00:55:29;102061.06;;;1.85;58.11
10167;BME280;62970;53.130;8.244;2023-04-27T00:57:59;102067.88;;;1.85;58.20
10167;BME280;62970;53.130;8.244;2023-04-27T01:00:28;102069.53;;;1.83;58.19
10167;BME280;62970;53.130;8.244;2023-04-27T01:03:00;102068.63;;;1.81;57.68
10167;BME280;62970;53.130;8.244;2023-04-27T01:05:30;102072.78;;;1.77;58.15
10167;BME280;62970;53.130;8.244;2023-04-27T01:07:59;102084.78;;;1.77;58.32
10167;BME280;62970;53.130;8.244;2023-04-27T01:10:29;102079.53;;;1.74;57.88
10167;BME280;62970;53.130;8.244;2023-04-27T01:12:58;102080.31;;;1.71;58.09
10167;BME280;62970;53.130;8.244;2023-04-27T01:15:29;102082.78;;;1.68;58.41
10167;BME280;62970;53.130;8.244;2023-04-27T01:18:02;102092.13;;;1.66;58.39
10167;BME280;62970;53.130;8.244;2023-04-27T01:20:32;102089.47;;;1.63;58.48
10167;BME280;62970;53.130;8.244;2023-04-27T01:23:01;102090.22;;;1.61;58.49
10167;BME280;62970;53.130;8.244;2023-04-27T01:25:33;102094.50;;;1.60;58.17
10167;BME280;62970;53.130;8.244;2023-04-27T01:28:03;102089.31;;;1.59;58.42
10167;BME280;62970;53.130;8.244;2023-04-27T01:30:32;102098.66;;;1.57;58.52
10167;BME280;62970;53.130;8.244;2023-04-27T01:33:03;102088.31;;;1.55;58.70
10167;BME280;62970;53.130;8.244;2023-04-27T01:35:32;102089.09;;;1.52;58.24
10167;BME280;62970;53.130;8.244;2023-04-27T01:38:02;102095.06;;;1.51;58.38
10167;BME280;62970;53.130;8.244;2023-04-27T01:40:34;102094.06;;;1.48;58.82
10167;BME280;62970;53.130;8.244;2023-04-27T01:43:04;102091.47;;;1.46;58.87
10167;BME280;62970;53.130;8.244;2023-04-27T01:45:33;102093.03;;;1.43;58.56
10167;BME280;62970;53.130;8.244;2023-04-27T01:48:04;102104.09;;;1.40;58.52
10167;BME280;62970;53.130;8.244;2023-04-27T01:50:33;102094.59;;;1.38;58.79
10167;BME280;62970;53.130;8.244;2023-04-27T01:53:04;102102.19;;;1.35;58.60
10167;BME280;62970;53.130;8.244;2023-04-27T01:55:37;102097.72;;;1.29;59.08
10167;BME280;62970;53.130;8.244;2023-04-27T01:58:06;102109.69;;;1.29;58.82
10167;BME280;62970;53.130;8.244;2023-04-27T02:00:35;102102.75;;;1.26;58.80
10167;BME280;62970;53.130;8.244;2023-04-27T02:03:05;102103.50;;;1.24;58.83
10167;BME280;62970;53.130;8.244;2023-04-27T02:05:34;102095.75;;;1.22;58.81
10167;BME280;62970;53.130;8.244;2023-04-27T02:08:04;102105.09;;;1.20;59.27
10167;BME280;62970;53.130;8.244;2023-04-27T02:10:37;102096.41;;;1.16;58.89
10167;BME280;62970;53.130;8.244;2023-04-27T02:13:06;102101.47;;;1.15;58.83
10167;BME280;62970;53.130;8.244;2023-04-27T02:15:35;102105.63;;;1.11;58.85
10167;BME280;62970;53.130;8.244;2023-04-27T02:18:05;102108.09;;;1.08;58.94
10167;BME280;62970;53.130;8.244;2023-04-27T02:20:34;102107.09;;;1.05;58.80
10167;BME280;62970;53.130;8.244;2023-04-27T02:23:03;102106.13;;;1.01;59.18
10167;BME280;62970;53.130;8.244;2023-04-27T02:25:37;102109.41;;;0.97;59.42
10167;BME280;62970;53.130;8.244;2023-04-27T02:28:11;102110.16;;;0.95;59.34
10167;BME280;62970;53.130;8.244;2023-04-27T02:30:40;102111.81;;;0.93;59.46
10167;BME280;62970;53.130;8.244;2023-04-27T02:33:09;102109.13;;;0.90;59.14
10167;BME280;62970;53.130;8.244;2023-04-27T02:35:39;102109.88;;;0.87;59.18
10167;BME280;62970;53.130;8.244;2023-04-27T02:38:08;102105.50;;;0.84;59.04
10167;BME280;62970;53.130;8.244;2023-04-27T02:40:41;102108.84;;;0.82;59.49
10167;BME280;62970;53.130;8.244;2023-04-27T02:43:10;102107.91;;;0.80;59.38
10167;BME280;62970;53.130;8.244;2023-04-27T02:45:39;102102.66;;;0.77;59.12
10167;BME280;62970;53.130;8.244;2023-04-27T02:48:09;102111.13;;;0.74;59.60
10167;BME280;62970;53.130;8.244;2023-04-27T02:50:40;102108.44;;;0.71;59.27
10167;BME280;62970;53.130;8.244;2023-04-27T02:53:11;102109.19;;;0.69;59.62
10167;BME280;62970;53.130;8.244;2023-04-27T02:55:47;102114.22;;;0.66;59.33
10167;BME280;62970;53.130;8.244;2023-04-27T02:58:17;102113.34;;;0.65;59.76
10167;BME280;62970;53.130;8.244;2023-04-27T03:00:46;102104.63;;;0.62;59.84
10167;BME280;62970;53.130;8.244;2023-04-27T03:03:16;102116.59;;;0.61;59.71
10167;BME280;62970;53.130;8.244;2023-04-27T03:05:45;102114.78;;;0.59;59.97
10167;BME280;62970;53.130;8.244;2023-04-27T03:08:14;102114.69;;;0.55;59.73
10167;BME280;62970;53.130;8.244;2023-04-27T03:10:46;102123.13;;;0.53;59.77
10167;BME280;62970;53.130;8.244;2023-04-27T03:13:16;102117.88;;;0.50;59.59
10167;BME280;62970;53.130;8.244;2023-04-27T03:15:45;102117.75;;;0.47;59.85
10167;BME280;62970;53.130;8.244;2023-04-27T03:18:15;102114.25;;;0.45;59.67
10167;BME280;62970;53.130;8.244;2023-04-27T03:20:45;102113.38;;;0.44;59.82
10167;BME280;62970;53.130;8.244;2023-04-27T03:23:14;102121.84;;;0.42;59.76
10167;BME280;62970;53.130;8.244;2023-04-27T03:25:46;102117.41;;;0.38;60.17
10167;BME280;62970;53.130;8.244;2023-04-27T03:28:15;102120.78;;;0.37;60.24
10167;BME280;62970;53.130;8.244;2023-04-27T03:30:45;102118.16;;;0.35;60.28
10167;BME280;62970;53.130;8.244;2023-04-27T03:33:14;102115.53;;;0.34;60.18
10167;BME280;62970;53.130;8.244;2023-04-27T03:35:43;102117.22;;;0.33;60.19
10167;BME280;62970;53.130;8.244;2023-04-27T03:38:12;102122.31;;;0.32;60.25
10167;BME280;62970;53.130;8.244;2023-04-27T03:40:42;102121.38;;;0.30;60.41
10167;BME280;62970;53.130;8.244;2023-04-27T03:43:14;102117.03;;;0.29;60.38
10167;BME280;62970;53.130;8.244;2023-04-27T03:45:43;102117.00;;;0.27;60.49
10167;BME280;62970;53.130;8.244;2023-04-27T03:48:13;102112.59;;;0.25;60.19
10167;BME280;62970;53.130;8.244;2023-04-27T03:50:43;102107.47;;;0.25;60.33
10167;BME280;62970;53.130;8.244;2023-04-27T03:53:13;102116.88;;;0.24;60.37
10167;BME280;62970;53.130;8.244;2023-04-27T03:55:43;102119.38;;;0.22;60.61
10167;BME280;62970;53.130;8.244;2023-04-27T03:58:15;102111.63;;;0.21;60.21
10167;BME280;62970;53.130;8.244;2023-04-27T04:00:45;102108.16;;;0.20;60.38
10167;BME280;62970;53.130;8.244;2023-04-27T04:03:14;102108.16;;;0.20;60.17
10167;BME280;62970;53.130;8.244;2023-04-27T04:05:43;102110.69;;;0.19;60.75
10167;BME280;62970;53.130;8.244;2023-04-27T04:08:13;102117.50;;;0.18;60.55
10167;BME280;62970;53.130;8.244;2023-04-27T04:10:43;102109.78;;;0.18;60.67
10167;BME280;62970;53.130;8.244;2023-04-27T04:13:15;102113.19;;;0.17;60.76
10167;BME280;62970;53.130;8.244;2023-04-27T04:15:44;102111.50;;;0.18;60.37
10167;BME280;62970;53.130;8.244;2023-04-27T04:18:13;102111.50;;;0.18;60.40
10167;BME280;62970;53.130;8.244;2023-04-27T04:20:42;102107.34;;;0.21;60.41
10167;BME280;62970;53.130;8.244;2023-04-27T04:23:12;102109.09;;;0.22;60.53
10167;BME280;62970;53.130;8.244;2023-04-27T04:25:41;102110.91;;;0.25;60.34
10167;BME280;62970;53.130;8.244;2023-04-27T04:28:10;102120.44;;;0.28;60.70
10167;BME280;62970;53.130;8.244;2023-04-27T04:30:42;102118.78;;;0.30;60.74
10167;BME280;62970;53.130;8.244;2023-04-27T04:33:12;102118.09;;;0.34;60.72
10167;BME280;62970;53.130;8.244;2023-04-27T04:35:42;102124.28;;;0.39;60.89
10167;BME280;62970;53.130;8.244;2023-04-27T04:38:11;102120.16;;;0.42;60.80
10167;BME280;62970;53.130;8.244;2023-04-27T04:40:41;102120.34;;;0.47;60.70
10167;BME280;62970;53.130;8.244;2023-04-27T04:43:10;102123.94;;;0.52;60.44
10167;BME280;62970;53.130;8.244;2023-04-27T04:45:42;102118.13;;;0.56;60.46
10167;BME280;62970;53.130;8.244;2023-04-27T04:48:13;102118.34;;;0.62;60.55
10167;BME280;62970;53.130;8.244;2023-04-27T04:50:43;102116.91;;;0.69;60.80
10167;BME280;62970;53.130;8.244;2023-04-27T04:53:12;102122.25;;;0.75;60.66
10167;BME280;62970;53.130;8.244;2023-04-27T04:55:41;102121.63;;;0.80;60.66
10167;BME280;62970;53.130;8.244;2023-04-27T04:58:10;102119.44;;;0.91;60.72
10167;BME280;62970;53.130;8.244;2023-04-27T05:00:42;102126.91;;;1.31;61.45
10167;BME280;62970;53.130;8.244;2023-04-27T05:10:58;102129.34;;;4.46;58.93
10167;BME280;62970;53.130;8.244;2023-04-27T05:13:27;102125.88;;;5.25;57.97
10167;BME280;62970;53.130;8.244;2023-04-27T05:16:03;102122.97;;;6.00;57.68
10167;BME280;62970;53.130;8.244;2023-04-27T05:18:34;102124.88;;;6.69;56.56
10167;BME280;62970;53.130;8.244;2023-04-27T05:21:04;102124.88;;;7.36;55.62
10167;BME280;62970;53.130;8.244;2023-04-27T05:23:33;102123.78;;;7.99;55.32
10167;BME280;62970;53.130;8.244;2023-04-27T05:26:11;102121.59;;;8.59;55.13
